createdAt,value
2022-10-02T00:00:32.472Z,12.02
2022-10-02T00:03:02.497Z,12.01
2022-10-02T00:05:32.993Z,12.04
2022-10-02T00:08:03.629Z,12.05
2022-10-02T00:10:34.043Z,11.93
2022-10-02T00:13:04.750Z,12.08
2022-10-02T00:15:34.764Z,12.14
2022-10-02T00:18:05.258Z,12.22
2022-10-02T00:20:35.755Z,12.04
2022-10-02T00:23:06.247Z,12.10
2022-10-02T00:25:36.739Z,12.07
2022-10-02T00:28:07.343Z,12.08
2022-10-02T00:30:37.766Z,11.99
2022-10-02T00:33:08.280Z,11.91
2022-10-02T00:35:38.791Z,11.91
2022-10-02T00:38:09.272Z,11.86
2022-10-02T00:40:39.769Z,11.90
2022-10-02T00:43:10.260Z,11.87
2022-10-02T00:45:40.838Z,11.90
2022-10-02T00:48:11.272Z,11.85
2022-10-02T00:50:41.807Z,11.96
2022-10-02T00:53:12.291Z,11.92
2022-10-02T00:55:42.774Z,11.90
2022-10-02T00:58:13.266Z,11.79
2022-10-02T01:00:43.859Z,11.79
2022-10-02T01:03:13.986Z,11.71
2022-10-02T01:05:44.520Z,11.86
2022-10-02T01:08:14.993Z,11.75
2022-10-02T01:10:45.139Z,11.63
2022-10-02T01:13:15.648Z,11.79
2022-10-02T01:15:46.167Z,11.86
2022-10-02T01:18:16.632Z,11.86
2022-10-02T01:20:47.449Z,11.96
2022-10-02T01:23:17.628Z,11.90
2022-10-02T01:25:48.119Z,11.97
2022-10-02T01:28:18.705Z,12.04
2022-10-02T01:30:49.153Z,12.13
2022-10-02T01:33:19.549Z,12.18
2022-10-02T01:35:50.115Z,12.21
2022-10-02T01:38:20.512Z,12.23
2022-10-02T01:40:51.002Z,12.25
2022-10-02T01:43:21.478Z,12.14
2022-10-02T01:45:52.142Z,12.13
2022-10-02T01:48:22.424Z,12.08
2022-10-02T01:50:52.915Z,12.06
2022-10-02T01:53:23.485Z,12.16
2022-10-02T01:55:53.948Z,12.20
2022-10-02T01:58:24.428Z,12.09
2022-10-02T02:00:55.008Z,12.06
2022-10-02T02:03:25.504Z,12.01
2022-10-02T02:05:55.947Z,12.07
2022-10-02T02:08:26.413Z,12.14
2022-10-02T02:10:56.917Z,12.09
2022-10-02T02:13:27.417Z,11.94
2022-10-02T02:15:58.088Z,12.03
2022-10-02T02:18:28.484Z,12.05
2022-10-02T02:20:58.908Z,11.97
2022-10-02T02:25:59.887Z,12.02
2022-10-02T02:28:30.439Z,12.08
2022-10-02T02:31:00.862Z,12.11
2022-10-02T02:33:31.423Z,12.21
2022-10-02T02:36:01.859Z,12.21
2022-10-02T02:38:32.347Z,12.25
2022-10-02T02:41:02.495Z,12.25
2022-10-02T02:43:32.969Z,12.27
2022-10-02T02:46:03.571Z,12.36
2022-10-02T02:48:33.950Z,12.42
2022-10-02T02:51:04.471Z,12.40
2022-10-02T02:53:34.932Z,12.43
2022-10-02T02:56:05.460Z,12.46
2022-10-02T02:58:35.915Z,12.31
2022-10-02T03:01:06.424Z,12.27
2022-10-02T03:03:36.869Z,12.21
2022-10-02T03:06:07.392Z,12.20
2022-10-02T03:08:37.874Z,12.16
2022-10-02T03:11:08.366Z,12.16
2022-10-02T03:13:38.839Z,12.04
2022-10-02T03:16:09.407Z,12.14
2022-10-02T03:18:39.813Z,12.14
2022-10-02T03:21:10.152Z,12.24
2022-10-02T03:23:40.507Z,12.27
2022-10-02T03:26:11.101Z,12.23
2022-10-02T03:28:55.503Z,12.25
2022-10-02T03:31:12.014Z,12.24
2022-10-02T03:33:42.486Z,12.18
2022-10-02T03:36:12.982Z,12.15
2022-10-02T03:38:43.448Z,12.12
2022-10-02T03:41:13.950Z,12.04
2022-10-02T03:43:44.500Z,12.01
2022-10-02T03:46:15.072Z,11.93
2022-10-02T03:48:45.408Z,11.85
2022-10-02T03:51:16.002Z,11.81
2022-10-02T03:53:46.390Z,11.79
2022-10-02T03:56:16.975Z,11.74
2022-10-02T03:58:47.385Z,11.75
2022-10-02T04:01:17.916Z,11.78
2022-10-02T04:03:48.489Z,11.80
2022-10-02T04:06:18.971Z,11.79
2022-10-02T04:08:49.375Z,11.80
2022-10-02T04:11:19.874Z,11.68
2022-10-02T04:13:50.420Z,11.54
2022-10-02T04:16:20.993Z,11.52
2022-10-02T04:18:51.442Z,11.47
2022-10-02T04:21:22.248Z,11.35
2022-10-02T04:23:52.244Z,11.49
2022-10-02T04:26:22.785Z,11.48
2022-10-02T04:28:52.891Z,11.52
2022-10-02T04:31:23.447Z,11.46
2022-10-02T04:33:53.869Z,11.48
2022-10-02T04:36:24.442Z,11.58
2022-10-02T04:38:54.896Z,11.62
2022-10-02T04:41:25.400Z,11.60
2022-10-02T04:43:55.899Z,11.60
2022-10-02T04:46:26.458Z,11.58
2022-10-02T04:48:56.938Z,11.52
2022-10-02T04:51:27.476Z,11.45
2022-10-02T04:53:57.991Z,11.47
2022-10-02T04:56:28.589Z,11.30
2022-10-02T04:58:59.041Z,11.39
2022-10-02T05:01:29.577Z,11.44
2022-10-02T05:04:03.881Z,11.42
2022-10-02T05:06:30.631Z,11.43
2022-10-02T05:09:01.132Z,11.45
2022-10-02T05:11:31.701Z,11.49
2022-10-02T05:14:02.226Z,11.59
2022-10-02T05:16:32.861Z,11.67
2022-10-02T05:19:03.278Z,11.73
2022-10-02T05:21:33.749Z,11.73
2022-10-02T05:24:04.304Z,11.70
2022-10-02T05:26:35.100Z,11.67
2022-10-02T05:29:05.298Z,11.59
2022-10-02T05:31:35.822Z,11.61
2022-10-02T05:34:06.308Z,11.59
2022-10-02T05:36:37.292Z,11.63
2022-10-02T05:39:07.400Z,11.56
2022-10-02T05:41:37.882Z,11.54
2022-10-02T05:44:08.362Z,11.52
2022-10-02T05:46:39.357Z,11.52
2022-10-02T05:49:09.413Z,11.50
2022-10-02T05:51:39.960Z,11.48
2022-10-02T05:54:10.418Z,11.58
2022-10-02T05:56:40.932Z,11.63
2022-10-02T05:59:11.456Z,11.53
2022-10-02T06:01:42.015Z,11.55
2022-10-02T06:04:12.522Z,11.57
2022-10-02T06:06:43.188Z,11.60
2022-10-02T06:09:17.728Z,11.59
2022-10-02T06:11:44.105Z,11.56
2022-10-02T06:14:14.576Z,11.60
2022-10-02T06:16:45.115Z,11.60
2022-10-02T06:19:15.612Z,11.63
2022-10-02T06:21:46.127Z,11.66
2022-10-02T06:24:16.621Z,11.70
2022-10-02T06:26:46.903Z,11.65
2022-10-02T06:29:19.288Z,11.66
2022-10-02T06:31:47.707Z,11.71
2022-10-02T06:34:18.095Z,11.79
2022-10-02T06:36:48.686Z,11.86
2022-10-02T06:39:19.146Z,11.89
2022-10-02T06:41:49.687Z,11.89
2022-10-02T06:44:20.188Z,11.85
2022-10-02T06:46:51.565Z,11.83
2022-10-02T06:49:21.154Z,11.79
2022-10-02T06:51:51.667Z,11.83
2022-10-02T06:54:22.151Z,11.79
2022-10-02T06:56:52.678Z,11.83
2022-10-02T06:59:22.834Z,11.81
2022-10-02T07:01:57.152Z,11.71
2022-10-02T07:04:23.558Z,11.76
2022-10-02T07:06:54.106Z,11.86
2022-10-02T07:09:24.609Z,11.91
2022-10-02T07:11:55.114Z,11.97
2022-10-02T07:14:25.605Z,12.11
2022-10-02T07:16:56.069Z,12.14
2022-10-02T07:19:26.547Z,12.18
2022-10-02T07:21:57.072Z,12.22
2022-10-02T07:24:27.299Z,12.24
2022-10-02T07:26:57.521Z,12.27
2022-10-02T07:29:27.721Z,12.28
2022-10-02T07:31:58.258Z,12.30
2022-10-02T07:34:28.438Z,12.41
2022-10-02T07:36:58.975Z,12.42
2022-10-02T07:39:29.429Z,12.44
2022-10-02T07:41:59.962Z,12.51
2022-10-02T07:44:30.428Z,12.59
2022-10-02T07:47:00.915Z,12.65
2022-10-02T07:49:31.057Z,12.78
2022-10-02T07:52:01.540Z,12.82
2022-10-02T07:54:32.017Z,12.75
2022-10-02T07:57:05.187Z,12.79
2022-10-02T07:59:32.964Z,12.82
2022-10-02T08:02:03.529Z,12.77
2022-10-02T08:04:37.155Z,12.79
2022-10-02T08:07:04.684Z,12.76
2022-10-02T08:09:34.808Z,12.87
2022-10-02T08:12:05.321Z,12.99
2022-10-02T08:14:35.441Z,13.05
2022-10-02T08:17:05.903Z,13.11
2022-10-02T08:19:36.373Z,13.13
2022-10-02T08:22:06.845Z,13.21
2022-10-02T08:24:37.271Z,13.31
2022-10-02T08:27:07.726Z,13.23
2022-10-02T08:29:38.178Z,13.35
2022-10-02T08:32:08.618Z,13.39
2022-10-02T08:34:38.793Z,13.43
2022-10-02T08:37:09.251Z,13.43
2022-10-02T08:39:39.713Z,13.51
2022-10-02T08:42:09.762Z,13.49
2022-10-02T08:44:40.304Z,13.49
2022-10-02T08:47:10.629Z,13.62
2022-10-02T08:49:41.065Z,13.66
2022-10-02T08:52:11.517Z,13.74
2022-10-02T08:54:41.940Z,13.85
2022-10-02T08:57:12.388Z,13.97
2022-10-02T08:59:42.879Z,14.04
2022-10-02T09:02:13.385Z,14.00
2022-10-02T09:04:43.669Z,13.98
2022-10-02T09:07:14.212Z,13.98
2022-10-02T09:09:44.542Z,14.07
2022-10-02T09:12:14.980Z,14.12
2022-10-02T09:14:45.486Z,14.20
2022-10-02T09:17:15.827Z,14.27
2022-10-02T09:19:46.233Z,14.31
2022-10-02T09:22:16.783Z,14.20
2022-10-02T09:24:47.083Z,14.28
2022-10-02T09:27:17.513Z,14.29
2022-10-02T09:29:48.003Z,14.38
2022-10-02T09:32:18.323Z,14.45
2022-10-02T09:34:48.725Z,14.45
2022-10-02T09:37:19.162Z,14.21
2022-10-02T09:39:49.578Z,14.32
2022-10-02T09:42:19.983Z,14.42
2022-10-02T09:44:50.131Z,14.41
2022-10-02T09:47:20.543Z,14.23
2022-10-02T09:49:50.986Z,14.23
2022-10-02T09:52:21.480Z,14.10
2022-10-02T09:54:51.782Z,14.08
2022-10-02T09:57:22.196Z,14.21
2022-10-02T09:59:52.602Z,14.19
2022-10-02T10:02:25.751Z,14.11
2022-10-02T10:05:05.441Z,14.30
2022-10-02T10:07:23.947Z,14.30
2022-10-02T10:09:54.365Z,14.40
2022-10-02T10:12:24.642Z,14.21
2022-10-02T10:14:55.269Z,14.37
2022-10-02T10:17:25.443Z,14.23
2022-10-02T10:19:55.868Z,14.34
2022-10-02T10:22:26.270Z,14.36
2022-10-02T10:24:56.671Z,14.50
2022-10-02T10:27:27.096Z,14.50
2022-10-02T10:29:57.474Z,14.64
2022-10-02T10:32:27.893Z,14.76
2022-10-02T10:34:58.281Z,14.90
2022-10-02T10:37:28.705Z,14.62
2022-10-02T10:39:59.088Z,14.73
2022-10-02T10:42:29.300Z,14.83
2022-10-02T10:44:59.591Z,14.91
2022-10-02T10:47:30.045Z,14.73
2022-10-02T10:50:00.385Z,14.82
2022-10-02T10:52:30.900Z,14.80
2022-10-02T10:55:01.191Z,14.88
2022-10-02T10:57:31.599Z,15.05
2022-10-02T11:00:02.039Z,14.96
2022-10-02T11:02:32.436Z,15.05
2022-10-02T11:05:02.778Z,15.04
2022-10-02T11:07:33.325Z,14.98
2022-10-02T11:10:03.537Z,14.90
2022-10-02T11:12:33.953Z,14.64
2022-10-02T11:15:04.370Z,14.44
2022-10-02T11:17:34.880Z,14.22
2022-10-02T11:20:05.235Z,14.03
2022-10-02T11:22:35.587Z,13.60
2022-10-02T11:25:09.377Z,13.50
2022-10-02T11:27:36.463Z,13.37
2022-10-02T11:30:06.951Z,13.45
2022-10-02T11:32:37.362Z,13.35
2022-10-02T11:35:07.858Z,13.16
2022-10-02T11:37:38.286Z,13.29
2022-10-02T11:40:08.683Z,13.44
2022-10-02T11:42:39.195Z,13.56
2022-10-02T11:45:09.710Z,13.59
2022-10-02T11:47:40.015Z,13.71
2022-10-02T11:50:10.522Z,13.78
2022-10-02T11:52:44.728Z,13.94
2022-10-02T11:55:11.323Z,14.04
2022-10-02T11:57:41.793Z,14.12
2022-10-02T12:00:12.195Z,14.13
2022-10-02T12:02:42.841Z,14.22
2022-10-02T12:05:13.157Z,14.33
2022-10-02T12:07:43.509Z,14.35
2022-10-02T12:10:13.825Z,14.37
2022-10-02T12:12:44.346Z,14.45
2022-10-02T12:15:14.718Z,14.53
2022-10-02T12:17:45.359Z,14.55
2022-10-02T12:20:16.028Z,14.69
2022-10-02T12:22:46.443Z,14.71
2022-10-02T12:25:16.850Z,14.82
2022-10-02T12:27:47.240Z,14.98
2022-10-02T12:30:17.600Z,15.21
2022-10-02T12:32:48.028Z,15.29
2022-10-02T12:35:18.379Z,15.38
2022-10-02T12:37:48.843Z,15.11
2022-10-02T12:40:19.155Z,15.14
2022-10-02T12:42:49.545Z,14.96
2022-10-02T12:45:19.596Z,14.96
2022-10-02T12:47:50.046Z,14.77
2022-10-02T12:50:20.422Z,14.74
2022-10-02T12:52:50.825Z,14.52
2022-10-02T12:55:21.226Z,14.55
2022-10-02T12:57:51.628Z,14.73
2022-10-02T13:00:22.084Z,14.77
2022-10-02T13:03:00.239Z,14.72
2022-10-02T13:05:22.813Z,14.91
2022-10-02T13:07:53.178Z,14.84
2022-10-02T13:10:23.553Z,14.88
2022-10-02T13:12:53.953Z,14.85
2022-10-02T13:15:24.403Z,14.63
2022-10-02T13:17:54.847Z,14.63
2022-10-02T13:20:25.316Z,14.53
2022-10-02T13:22:55.306Z,14.73
2022-10-02T13:25:25.806Z,14.86
2022-10-02T13:27:56.154Z,14.87
2022-10-02T13:30:26.475Z,14.89
2022-10-02T13:32:56.884Z,15.01
2022-10-02T13:35:27.262Z,14.80
2022-10-02T13:37:57.735Z,14.83
2022-10-02T13:40:28.076Z,14.79
2022-10-02T13:42:58.454Z,15.00
2022-10-02T13:45:28.912Z,14.91
2022-10-02T13:47:59.266Z,14.80
2022-10-02T13:50:29.693Z,14.68
2022-10-02T13:53:00.070Z,14.56
2022-10-02T13:55:30.429Z,14.65
2022-10-02T13:58:00.581Z,14.47
2022-10-02T14:00:30.940Z,14.36
2022-10-02T14:03:01.412Z,14.60
2022-10-02T14:05:31.796Z,14.53
2022-10-02T14:08:02.187Z,14.44
2022-10-02T14:10:32.591Z,14.64
2022-10-02T14:13:03.024Z,14.76
2022-10-02T14:15:33.436Z,14.86
2022-10-02T14:18:03.838Z,15.06
2022-10-02T14:20:34.286Z,15.17
2022-10-02T14:23:04.594Z,15.29
2022-10-02T14:25:34.954Z,15.30
2022-10-02T14:28:05.415Z,15.37
2022-10-02T14:30:35.775Z,15.21
2022-10-02T14:33:06.322Z,15.23
2022-10-02T14:35:36.560Z,15.00
2022-10-02T14:38:06.916Z,15.13
2022-10-02T14:40:37.308Z,14.94
2022-10-02T14:43:07.739Z,14.95
2022-10-02T14:45:38.209Z,15.02
2022-10-02T14:48:08.553Z,15.02
2022-10-02T14:50:39.058Z,15.19
2022-10-02T14:53:09.486Z,15.12
2022-10-02T14:55:39.621Z,15.14
2022-10-02T14:58:09.975Z,14.99
2022-10-02T15:00:40.434Z,14.92
2022-10-02T15:03:10.737Z,14.98
2022-10-02T15:05:41.122Z,14.99
2022-10-02T15:08:11.476Z,14.76
2022-10-02T15:10:41.869Z,14.90
2022-10-02T15:13:12.196Z,14.93
2022-10-02T15:15:42.704Z,14.95
2022-10-02T15:18:12.950Z,14.76
2022-10-02T15:20:43.695Z,14.82
2022-10-02T15:23:14.014Z,14.74
2022-10-02T15:25:44.084Z,14.82
2022-10-02T15:28:35.271Z,14.89
2022-10-02T15:30:44.887Z,14.90
2022-10-02T15:33:15.222Z,14.95
2022-10-02T15:35:45.635Z,14.84
2022-10-02T15:38:16.081Z,14.82
2022-10-02T15:40:47.207Z,14.89
2022-10-02T15:43:16.728Z,14.83
2022-10-02T15:45:47.308Z,14.88
2022-10-02T15:48:17.472Z,14.87
2022-10-02T15:50:47.914Z,14.84
2022-10-02T15:53:18.235Z,14.82
2022-10-02T15:55:48.597Z,14.60
2022-10-02T15:58:18.961Z,14.69
2022-10-02T16:00:49.425Z,14.47
2022-10-02T16:03:19.743Z,14.42
2022-10-02T16:05:50.128Z,14.64
2022-10-02T16:08:20.489Z,14.35
2022-10-02T16:10:50.874Z,14.44
2022-10-02T16:13:21.253Z,14.45
2022-10-02T16:15:51.663Z,14.50
2022-10-02T16:18:22.120Z,14.53
2022-10-02T16:20:52.536Z,14.57
2022-10-02T16:23:22.836Z,14.58
2022-10-02T16:25:53.202Z,14.62
2022-10-02T16:28:23.680Z,14.30
2022-10-02T16:30:54.026Z,14.47
2022-10-02T16:33:24.446Z,14.50
2022-10-02T16:35:54.833Z,14.49
2022-10-02T16:38:25.221Z,14.45
2022-10-02T16:40:56.003Z,14.38
2022-10-02T16:43:26.417Z,14.52
2022-10-02T16:45:56.594Z,14.60
2022-10-02T16:48:26.569Z,14.58
2022-10-02T16:50:57.019Z,14.57
2022-10-02T16:53:27.101Z,14.54
2022-10-02T16:55:57.513Z,14.47
2022-10-02T16:58:27.893Z,14.44
2022-10-02T17:00:58.355Z,14.42
2022-10-02T17:03:28.684Z,14.39
2022-10-02T17:05:59.601Z,14.38
2022-10-02T17:08:29.486Z,14.37
2022-10-02T17:10:59.891Z,14.27
2022-10-02T17:13:30.283Z,14.30
2022-10-02T17:16:00.727Z,14.24
2022-10-02T17:18:31.099Z,14.27
2022-10-02T17:21:01.473Z,14.32
2022-10-02T17:23:33.059Z,14.36
2022-10-02T17:26:02.389Z,14.30
2022-10-02T17:28:32.753Z,14.33
2022-10-02T17:31:03.071Z,14.28
2022-10-02T17:33:33.417Z,14.24
2022-10-02T17:36:03.864Z,14.15
2022-10-02T17:38:34.209Z,14.15
2022-10-02T17:41:04.603Z,14.14
2022-10-02T17:43:34.993Z,14.09
2022-10-02T17:46:05.449Z,13.98
2022-10-02T17:48:35.800Z,13.95
2022-10-02T17:51:19.461Z,13.93
2022-10-02T17:53:36.634Z,13.74
2022-10-02T17:56:07.107Z,13.76
2022-10-02T17:58:37.436Z,13.83
2022-10-02T18:01:07.873Z,13.87
2022-10-02T18:03:38.266Z,13.87
2022-10-02T18:06:08.685Z,13.73
2022-10-02T18:08:39.106Z,13.73
2022-10-02T18:11:09.596Z,13.72
2022-10-02T18:13:39.932Z,13.78
2022-10-02T18:16:10.392Z,13.83
2022-10-02T18:18:40.833Z,13.88
2022-10-02T18:21:11.169Z,13.81
2022-10-02T18:23:41.597Z,13.77
2022-10-02T18:26:15.522Z,13.79
2022-10-02T18:28:42.403Z,13.73
2022-10-02T18:31:12.863Z,13.55
2022-10-02T18:33:43.211Z,13.57
2022-10-02T18:36:13.652Z,13.56
2022-10-02T18:38:44.057Z,13.48
2022-10-02T18:41:14.592Z,13.50
2022-10-02T18:43:44.924Z,13.53
2022-10-02T18:46:15.446Z,13.52
2022-10-02T18:48:45.761Z,13.49
2022-10-02T18:51:16.312Z,13.50
2022-10-02T18:53:46.615Z,13.54
2022-10-02T18:56:17.241Z,13.55
2022-10-02T18:58:47.455Z,13.45
2022-10-02T19:01:17.952Z,13.50
2022-10-02T19:03:48.292Z,13.55
2022-10-02T19:06:18.760Z,13.53
2022-10-02T19:08:49.149Z,13.52
2022-10-02T19:11:19.568Z,13.48
2022-10-02T19:13:49.982Z,13.43
2022-10-02T19:16:20.466Z,13.42
2022-10-02T19:18:50.832Z,13.34
2022-10-02T19:21:21.275Z,13.30
2022-10-02T19:23:51.740Z,13.25
2022-10-02T19:26:22.122Z,13.19
2022-10-02T19:28:52.541Z,13.09
2022-10-02T19:31:23.076Z,13.10
2022-10-02T19:33:53.406Z,13.11
2022-10-02T19:36:23.849Z,13.08
2022-10-02T19:38:54.278Z,13.10
2022-10-02T19:41:24.706Z,13.13
2022-10-02T19:43:55.121Z,13.11
2022-10-02T19:46:25.566Z,13.06
2022-10-02T19:48:56.012Z,12.98
2022-10-02T19:51:26.462Z,12.91
2022-10-02T19:53:56.895Z,12.84
2022-10-02T19:56:27.343Z,12.79
2022-10-02T19:58:57.766Z,12.75
2022-10-02T20:01:27.940Z,12.70
2022-10-02T20:03:58.333Z,12.64
2022-10-02T20:06:28.846Z,12.52
2022-10-02T20:08:58.953Z,12.53
2022-10-02T20:11:29.443Z,12.37
2022-10-02T20:13:59.898Z,12.43
2022-10-02T20:16:30.173Z,12.51
2022-10-02T20:19:00.568Z,12.58
2022-10-02T20:21:31.043Z,12.56
2022-10-02T20:24:01.585Z,12.58
2022-10-02T20:26:31.978Z,12.52
2022-10-02T20:29:02.540Z,12.46
2022-10-02T20:31:32.998Z,12.42
2022-10-02T20:34:03.504Z,12.37
2022-10-02T20:36:34.039Z,12.31
2022-10-02T20:39:04.483Z,12.24
2022-10-02T20:41:35.157Z,12.14
2022-10-02T20:44:05.513Z,12.08
2022-10-02T20:46:35.902Z,12.03
2022-10-02T20:49:08.763Z,12.03
2022-10-02T20:51:39.834Z,12.08
2022-10-02T20:54:07.287Z,12.08
2022-10-02T20:56:37.746Z,12.14
2022-10-02T20:59:08.314Z,12.19
2022-10-02T21:01:39.136Z,12.19
2022-10-02T21:04:09.248Z,12.20
2022-10-02T21:06:40.266Z,12.19
2022-10-02T21:09:10.115Z,11.95
2022-10-02T21:11:40.573Z,11.99
2022-10-02T21:14:11.053Z,12.01
2022-10-02T21:16:42.044Z,12.01
2022-10-02T21:19:12.013Z,12.00
2022-10-02T21:21:42.520Z,12.06
2022-10-02T21:24:12.947Z,12.06
2022-10-02T21:26:43.425Z,12.07
2022-10-02T21:29:13.898Z,12.09
2022-10-02T21:31:44.353Z,12.17
2022-10-02T21:34:14.807Z,12.23
2022-10-02T21:36:45.291Z,12.27
2022-10-02T21:39:15.826Z,12.26
2022-10-02T21:41:46.238Z,12.20
2022-10-02T21:44:16.383Z,12.18
2022-10-02T21:46:46.833Z,12.16
2022-10-02T21:49:17.331Z,12.08
2022-10-02T21:51:47.763Z,12.03
2022-10-02T21:54:18.290Z,11.98
2022-10-02T21:56:52.565Z,11.92
2022-10-02T21:59:19.169Z,11.88
2022-10-02T22:02:07.316Z,11.85
2022-10-02T22:04:20.214Z,11.80
2022-10-02T22:06:54.532Z,11.80
2022-10-02T22:09:21.085Z,11.84
2022-10-02T22:11:51.564Z,11.90
2022-10-02T22:14:22.023Z,11.90
2022-10-02T22:16:52.529Z,11.90
2022-10-02T22:19:22.986Z,11.89
2022-10-02T22:21:53.195Z,11.84
2022-10-02T22:24:23.669Z,11.72
2022-10-02T22:26:54.258Z,11.66
2022-10-02T22:29:24.621Z,11.63
2022-10-02T22:31:55.108Z,11.61
2022-10-02T22:34:25.657Z,11.58
2022-10-02T22:36:56.110Z,11.59
2022-10-02T22:39:26.784Z,11.55
2022-10-02T22:41:57.239Z,11.53
2022-10-02T22:44:27.629Z,11.49
2022-10-02T22:46:58.146Z,11.50
2022-10-02T22:49:28.654Z,11.57
2022-10-02T22:52:00.237Z,11.61
2022-10-02T22:54:29.739Z,11.59
2022-10-02T22:57:00.187Z,11.58
2022-10-02T22:59:30.712Z,11.56
2022-10-02T23:02:01.271Z,11.54
2022-10-02T23:04:31.743Z,11.48
2022-10-02T23:07:02.268Z,11.44
2022-10-02T23:09:32.843Z,11.45
2022-10-02T23:12:03.311Z,11.47
2022-10-02T23:14:33.808Z,11.49
2022-10-02T23:17:04.425Z,11.51
2022-10-02T23:19:34.839Z,11.49
2022-10-02T23:22:05.387Z,11.48
2022-10-02T23:24:35.919Z,11.48
2022-10-02T23:27:06.394Z,11.51
2022-10-02T23:29:36.886Z,11.55
2022-10-02T23:32:07.404Z,11.57
2022-10-02T23:34:37.912Z,11.55
2022-10-02T23:37:08.444Z,11.52
2022-10-02T23:39:38.963Z,11.47
2022-10-02T23:42:09.516Z,11.38
2022-10-02T23:44:39.963Z,11.39
2022-10-02T23:47:10.581Z,11.33
2022-10-02T23:49:41.019Z,11.32
2022-10-02T23:52:11.553Z,11.28
2022-10-02T23:54:41.799Z,11.24
2022-10-02T23:57:12.331Z,11.24
2022-10-02T23:59:42.833Z,11.23
